Scot Hamburg — 9HA4095 — position and weather

sailwx.info

Track history (hours):
 
Tides and Currents Weather Stations Pressure Air Temp Water Temp Dewpoint Dewpoint Depression Visibility Wind Speed Wind Dir Waves Ship Positions

Scot Hamburg

Last reported at 2018-May-27 22:34 UTC. Time now 2018-Jun-18 17:36 UTC.
Position N 31°21' E 032°20'.
Warning: this ship's position is 21 days out of date.

Length 117 m; draft 7.4 m.

Type: Ship (hazmat cat B). MMSI: 249081000.

Date/timePositionNaut miles runAvg speedWind from/ knotsBaromVisibWave heightAir tempDewpointWater temp
2018-May-27 22:34N 31°21' E 032°20'0 0.0
2018-May-27 22:28N 31°21' E 032°20'150 8.3
2018-May-27 04:31N 32°54' E 034°39'112.9
2018-May-27 04:28N 32°54' E 034°39'612.6
2018-May-27 04:00N 32°50' E 034°44'612.0
2018-May-27 03:28N 32°50' E 034°52'612.2
2018-May-27 02:58N 32°52' E 034°59'4 0.1
2018-May-25 21:06N 32°49' E 035°02'0 0.0
2018-May-25 20:44N 32°49' E 035°02'0 0.0
2018-May-25 20:28N 32°49' E 035°02'0 0.0
2018-May-25 19:59N 32°49' E 035°02'0 0.0
2018-May-25 19:28N 32°49' E 035°02'0 0.0
2018-May-25 18:53N 32°49' E 035°02'0 0.0
2018-May-25 18:30N 32°49' E 035°02'0 0.0
2018-May-25 17:11N 32°49' E 035°02'0 0.0
2018-May-25 15:05N 32°49' E 035°02'0 0.0
2018-May-25 14:41N 32°49' E 035°02'0 0.0
2018-May-25 14:30N 32°49' E 035°02'0 0.0
2018-May-25 13:30N 32°49' E 035°02'0 0.0
2018-May-25 13:00N 32°49' E 035°02'0 0.0
2018-May-25 11:24N 32°49' E 035°02'0 0.0
2018-May-25 11:00N 32°49' E 035°02'0 0.0
2018-May-25 08:59N 32°49' E 035°02'2 2.8
2018-May-25 08:22N 32°51' E 035°01'1 3.5
2018-May-25 08:00N 32°51' E 034°60'4 8.4
2018-May-25 07:30N 32°53' E 034°55'611.9
2018-May-25 07:00N 32°56' E 034°49'611.9
2018-May-25 06:30N 32°58' E 034°42'612.1
2018-May-25 06:00N 33°01' E 034°36'612.8
2018-May-25 05:30N 33°04' E 034°29'612.9
2018-May-25 05:00N 33°07' E 034°22'612.9
2018-May-25 04:30N 33°10' E 034°15'612.8
2018-May-25 04:00N 33°12' E 034°09'713.0
2018-May-25 03:30N 33°15' E 034°02'613.1
2018-May-25 03:00N 33°18' E 033°54'713.0
2018-May-25 02:27N 33°21' E 033°47'812.8
2018-May-25 01:51N 33°24' E 033°38'513.0
2018-May-25 01:30N 33°26' E 033°33'613.0
2018-May-25 01:00N 33°28' E 033°26'2212.8
2018-May-24 23:18N 33°38' E 033°03'412.7
2018-May-24 23:00N 33°40' E 032°58'612.7
2018-May-24 22:30N 33°43' E 032°52'612.9
2018-May-24 22:00N 33°46' E 032°45'713.1
2018-May-24 21:30N 33°49' E 032°38'713.1
2018-May-24 20:59N 33°51' E 032°30'1212.6
2018-May-24 20:01N 33°56' E 032°17'012.6
2018-May-24 20:00N 33°56' E 032°16'612.6
2018-May-24 19:30N 33°59' E 032°10'612.7
2018-May-24 19:00N 34°01' E 032°03'612.7
2018-May-24 18:30N 34°04' E 031°56'812.7
2018-May-24 17:52N 34°07' E 031°47'813.0
2018-May-24 17:17N 34°10' E 031°38'413.0
2018-May-24 17:00N 34°12' E 031°34'2212.4
2018-May-24 15:14N 34°22' E 031°11'312.6
2018-May-24 14:58N 34°24' E 031°07'612.6
2018-May-24 14:30N 34°26' E 031°01'30412.9
2018-May-23 14:52N 37°22' E 025°55'513.0
2018-May-23 14:30N 37°26' E 025°51'1413.1
2018-May-23 13:24N 37°40' E 025°47'  
2018-May-20 23:13N 39°43' E 025°40'2511.2
2018-May-20 20:58N 40°01' E 026°02'  
Track history (hours):
 
Tides and Currents Weather Stations Pressure Air Temp Water Temp Dewpoint Dewpoint Depression Visibility Wind Speed Wind Dir Waves Ship Positions

Scot Hamburg

Last reported at 2018-May-27 22:34 UTC. Time now 2018-Jun-18 17:36 UTC.
Position N 31°21' E 032°20'.
Warning: this ship's position is 21 days out of date.

Length 117 m; draft 7.4 m.

Type: Ship (hazmat cat B). MMSI: 249081000.

Date/timePositionNaut miles runAvg speedWind from/ knotsBaromVisibWave heightAir tempDewpointWater temp
2018-May-27 22:34N 31°21' E 032°20'0 0.0
2018-May-27 22:28N 31°21' E 032°20'150 8.3
2018-May-27 04:31N 32°54' E 034°39'112.9
2018-May-27 04:28N 32°54' E 034°39'612.6
2018-May-27 04:00N 32°50' E 034°44'612.0
2018-May-27 03:28N 32°50' E 034°52'612.2
2018-May-27 02:58N 32°52' E 034°59'4 0.1
2018-May-25 21:06N 32°49' E 035°02'0 0.0
2018-May-25 20:44N 32°49' E 035°02'0 0.0
2018-May-25 20:28N 32°49' E 035°02'0 0.0
2018-May-25 19:59N 32°49' E 035°02'0 0.0
2018-May-25 19:28N 32°49' E 035°02'0 0.0
2018-May-25 18:53N 32°49' E 035°02'0 0.0
2018-May-25 18:30N 32°49' E 035°02'0 0.0
2018-May-25 17:11N 32°49' E 035°02'0 0.0
2018-May-25 15:05N 32°49' E 035°02'0 0.0
2018-May-25 14:41N 32°49' E 035°02'0 0.0
2018-May-25 14:30N 32°49' E 035°02'0 0.0
2018-May-25 13:30N 32°49' E 035°02'0 0.0
2018-May-25 13:00N 32°49' E 035°02'0 0.0
2018-May-25 11:24N 32°49' E 035°02'0 0.0
2018-May-25 11:00N 32°49' E 035°02'0 0.0
2018-May-25 08:59N 32°49' E 035°02'2 2.8
2018-May-25 08:22N 32°51' E 035°01'1 3.5
2018-May-25 08:00N 32°51' E 034°60'4 8.4
2018-May-25 07:30N 32°53' E 034°55'611.9
2018-May-25 07:00N 32°56' E 034°49'611.9
2018-May-25 06:30N 32°58' E 034°42'612.1
2018-May-25 06:00N 33°01' E 034°36'612.8
2018-May-25 05:30N 33°04' E 034°29'612.9
2018-May-25 05:00N 33°07' E 034°22'612.9
2018-May-25 04:30N 33°10' E 034°15'612.8
2018-May-25 04:00N 33°12' E 034°09'713.0
2018-May-25 03:30N 33°15' E 034°02'613.1
2018-May-25 03:00N 33°18' E 033°54'713.0
2018-May-25 02:27N 33°21' E 033°47'812.8
2018-May-25 01:51N 33°24' E 033°38'513.0
2018-May-25 01:30N 33°26' E 033°33'613.0
2018-May-25 01:00N 33°28' E 033°26'2212.8
2018-May-24 23:18N 33°38' E 033°03'412.7
2018-May-24 23:00N 33°40' E 032°58'612.7
2018-May-24 22:30N 33°43' E 032°52'612.9
2018-May-24 22:00N 33°46' E 032°45'713.1
2018-May-24 21:30N 33°49' E 032°38'713.1
2018-May-24 20:59N 33°51' E 032°30'1212.6
2018-May-24 20:01N 33°56' E 032°17'012.6
2018-May-24 20:00N 33°56' E 032°16'612.6
2018-May-24 19:30N 33°59' E 032°10'612.7
2018-May-24 19:00N 34°01' E 032°03'612.7
2018-May-24 18:30N 34°04' E 031°56'812.7
2018-May-24 17:52N 34°07' E 031°47'813.0
2018-May-24 17:17N 34°10' E 031°38'413.0
2018-May-24 17:00N 34°12' E 031°34'2212.4
2018-May-24 15:14N 34°22' E 031°11'312.6
2018-May-24 14:58N 34°24' E 031°07'612.6
2018-May-24 14:30N 34°26' E 031°01'30412.9
2018-May-23 14:52N 37°22' E 025°55'513.0
2018-May-23 14:30N 37°26' E 025°51'1413.1
2018-May-23 13:24N 37°40' E 025°47'  
2018-May-20 23:13N 39°43' E 025°40'2511.2
2018-May-20 20:58N 40°01' E 026°02'  

Dump ship's entire track history